createdAt,value
2022-08-22T00:00:13.345Z,18.64
2022-08-22T00:02:46.809Z,19.53
2022-08-22T00:03:00.571Z,21.29
2022-08-22T00:03:00.571Z,20.79
2022-08-22T00:03:12.286Z,21.11
2022-08-22T00:03:15.046Z,18.68
2022-08-22T00:05:30.838Z,18.70
2022-08-22T00:07:50.692Z,18.71
2022-08-22T00:10:31.433Z,18.71
2022-08-22T00:12:42.685Z,18.70
2022-08-22T00:14:58.315Z,18.67
2022-08-22T00:17:22.883Z,18.61
2022-08-22T00:19:31.718Z,18.55
2022-08-22T00:21:44.800Z,18.52
2022-08-22T00:24:04.835Z,18.55
2022-08-22T00:26:15.816Z,18.57
2022-08-22T00:28:17.309Z,18.58
2022-08-22T00:30:19.750Z,18.59
2022-08-22T00:32:32.561Z,18.61
2022-08-22T00:34:51.153Z,18.58
2022-08-22T00:37:19.121Z,18.51
2022-08-22T00:39:31.500Z,18.47
2022-08-22T00:42:08.127Z,18.46
2022-08-22T00:44:32.326Z,18.47
2022-08-22T00:46:57.719Z,18.48
2022-08-22T00:49:11.191Z,18.47
2022-08-22T00:51:25.078Z,18.46
2022-08-22T00:53:54.305Z,18.44
2022-08-22T00:56:18.223Z,18.40
2022-08-22T00:58:42.925Z,18.38
2022-08-22T01:00:58.839Z,18.37
2022-08-22T01:03:09.746Z,18.34
2022-08-22T01:05:28.241Z,18.31
2022-08-22T01:07:38.174Z,18.27
2022-08-22T01:09:49.495Z,18.19
2022-08-22T01:12:05.928Z,18.13
2022-08-22T01:14:34.622Z,18.11
2022-08-22T01:16:36.752Z,18.09
2022-08-22T01:18:56.519Z,18.09
2022-08-22T01:21:44.821Z,18.05
2022-08-22T01:24:10.742Z,17.97
2022-08-22T01:26:44.780Z,17.93
2022-08-22T01:29:13.647Z,17.91
2022-08-22T01:31:44.455Z,17.90
2022-08-22T01:34:23.634Z,17.88
2022-08-22T01:36:38.624Z,17.86
2022-08-22T01:39:10.655Z,17.85
2022-08-22T01:41:17.177Z,17.83
2022-08-22T01:43:58.703Z,17.80
2022-08-22T01:46:01.511Z,17.77
2022-08-22T01:48:20.039Z,17.75
2022-08-22T01:50:25.080Z,17.71
2022-08-22T01:52:50.891Z,17.70
2022-08-22T01:55:24.524Z,17.61
2022-08-22T01:57:26.373Z,17.57
2022-08-22T01:59:42.434Z,17.57
2022-08-22T02:01:49.967Z,17.61
2022-08-22T02:04:02.544Z,17.62
2022-08-22T02:06:35.951Z,17.63
2022-08-22T02:09:01.962Z,17.62
2022-08-22T02:11:10.653Z,17.58
2022-08-22T02:13:12.894Z,17.54
2022-08-22T02:15:14.339Z,17.51
2022-08-22T02:17:50.779Z,17.49
2022-08-22T02:20:01.702Z,17.46
2022-08-22T02:22:31.132Z,17.46
2022-08-22T02:24:41.628Z,17.43
2022-08-22T02:27:05.060Z,17.41
2022-08-22T02:29:12.616Z,17.39
2022-08-22T02:31:17.135Z,17.36
2022-08-22T02:33:34.324Z,17.31
2022-08-22T02:35:59.882Z,17.22
2022-08-22T02:38:13.341Z,17.18
2022-08-22T02:41:10.741Z,17.16
2022-08-22T02:43:27.364Z,17.13
2022-08-22T02:45:35.797Z,17.11
2022-08-22T02:48:03.729Z,17.11
2022-08-22T02:50:05.841Z,17.10
2022-08-22T02:52:26.290Z,17.12
2022-08-22T02:54:45.936Z,17.11
2022-08-22T02:56:50.771Z,17.09
2022-08-22T02:59:18.697Z,17.06
2022-08-22T03:01:34.958Z,17.00
2022-08-22T03:03:41.069Z,16.91
2022-08-22T03:05:45.508Z,16.89
2022-08-22T03:08:03.441Z,16.91
2022-08-22T03:10:18.558Z,16.92
2022-08-22T03:12:41.779Z,16.92
2022-08-22T03:14:54.558Z,16.92
2022-08-22T03:17:05.911Z,16.90
2022-08-22T03:19:22.883Z,16.85
2022-08-22T03:21:28.064Z,16.79
2022-08-22T03:23:39.003Z,16.76
2022-08-22T03:26:08.081Z,16.74
2022-08-22T03:28:14.508Z,16.77
2022-08-22T03:30:56.236Z,16.82
2022-08-22T03:33:20.156Z,16.87
2022-08-22T03:35:43.626Z,16.88
2022-08-22T03:37:45.357Z,16.90
2022-08-22T03:39:59.822Z,16.90
2022-08-22T03:42:16.288Z,16.90
2022-08-22T03:44:17.728Z,16.88
2022-08-22T03:46:41.077Z,16.79
2022-08-22T03:49:33.218Z,16.72
2022-08-22T03:51:47.065Z,16.73
2022-08-22T03:53:54.615Z,16.76
2022-08-22T03:56:31.236Z,16.71
2022-08-22T03:59:09.954Z,16.67
2022-08-22T04:01:36.325Z,16.65
2022-08-22T04:04:02.674Z,16.67
2022-08-22T04:06:18.991Z,16.64
2022-08-22T04:08:29.340Z,16.62
2022-08-22T04:11:03.856Z,16.61
2022-08-22T04:13:37.625Z,16.60
2022-08-22T04:16:03.875Z,16.56
2022-08-22T04:18:17.443Z,16.55
2022-08-22T04:20:40.593Z,16.52
2022-08-22T04:23:14.946Z,16.49
2022-08-22T04:25:25.497Z,16.49
2022-08-22T04:27:43.666Z,16.48
2022-08-22T04:30:03.600Z,16.50
2022-08-22T04:32:14.648Z,16.51
2022-08-22T04:34:28.429Z,16.52
2022-08-22T04:36:42.300Z,16.53
2022-08-22T04:39:06.883Z,16.53
2022-08-22T04:41:12.284Z,16.54
2022-08-22T04:43:19.836Z,16.58
2022-08-22T04:46:08.066Z,16.59
2022-08-22T04:48:26.307Z,16.61
2022-08-22T04:50:50.430Z,16.66
2022-08-22T04:53:17.548Z,16.69
2022-08-22T04:55:46.276Z,16.69
2022-08-22T04:58:06.487Z,16.71
2022-08-22T05:00:11.308Z,16.76
2022-08-22T05:02:21.417Z,16.86
2022-08-22T05:04:31.816Z,16.96
2022-08-22T05:06:40.087Z,17.06
2022-08-22T05:08:43.721Z,17.14
2022-08-22T05:10:49.206Z,17.21
2022-08-22T05:13:03.081Z,17.29
2022-08-22T05:15:22.989Z,17.32
2022-08-22T05:17:29.314Z,17.36
2022-08-22T05:19:34.735Z,17.41
2022-08-22T05:21:40.466Z,17.46
2022-08-22T05:23:48.198Z,17.51
2022-08-22T05:25:54.398Z,17.58
2022-08-22T05:28:17.963Z,17.63
2022-08-22T05:30:25.382Z,17.66
2022-08-22T05:32:38.029Z,17.74
2022-08-22T05:34:42.441Z,17.78
2022-08-22T05:36:48.757Z,17.83
2022-08-22T05:39:08.738Z,17.89
2022-08-22T05:41:21.700Z,17.99
2022-08-22T05:43:25.510Z,18.05
2022-08-22T05:45:29.261Z,18.12
2022-08-22T05:47:41.052Z,18.17
2022-08-22T05:49:48.516Z,18.23
2022-08-22T05:52:11.844Z,18.28
2022-08-22T05:54:20.098Z,18.32
2022-08-22T05:56:34.670Z,18.38
2022-08-22T05:58:38.860Z,18.44
2022-08-22T06:00:43.985Z,18.51
2022-08-22T06:03:03.376Z,18.59
2022-08-22T06:05:11.391Z,18.64
2022-08-22T06:07:20.534Z,18.70
2022-08-22T06:09:46.379Z,18.78
2022-08-22T06:11:58.452Z,18.85
2022-08-22T06:14:17.887Z,18.92
2022-08-22T06:16:28.053Z,18.96
2022-08-22T06:18:31.545Z,19.02
2022-08-22T06:21:20.685Z,19.11
2022-08-22T06:23:27.853Z,19.16
2022-08-22T06:25:39.378Z,19.22
2022-08-22T06:27:42.688Z,19.29
2022-08-22T06:29:49.322Z,19.34
2022-08-22T06:31:51.237Z,19.40
2022-08-22T06:34:28.601Z,19.46
2022-08-22T06:36:32.277Z,19.51
2022-08-22T06:39:02.447Z,19.57
2022-08-22T06:41:08.056Z,19.62
2022-08-22T06:43:12.056Z,19.68
2022-08-22T06:45:27.614Z,19.74
2022-08-22T06:47:33.371Z,19.80
2022-08-22T06:49:37.246Z,19.88
2022-08-22T06:51:39.615Z,19.92
2022-08-22T06:53:54.713Z,19.98
2022-08-22T06:55:59.396Z,20.03
2022-08-22T06:58:24.700Z,20.10
2022-08-22T07:00:27.014Z,20.14
2022-08-22T07:02:38.897Z,20.20
2022-08-22T07:04:40.478Z,20.24
2022-08-22T07:06:46.274Z,20.28
2022-08-22T07:08:54.076Z,20.33
2022-08-22T07:11:08.871Z,20.38
2022-08-22T07:13:16.295Z,20.43
2022-08-22T07:15:35.446Z,20.48
2022-08-22T07:17:40.616Z,20.52
2022-08-22T07:19:54.167Z,20.58
2022-08-22T07:21:57.287Z,20.62
2022-08-22T07:24:01.287Z,20.67
2022-08-22T07:26:22.370Z,20.73
2022-08-22T07:28:51.280Z,20.76
2022-08-22T07:31:07.128Z,20.81
2022-08-22T07:33:25.752Z,20.86
2022-08-22T07:35:35.465Z,20.90
2022-08-22T07:37:55.484Z,20.96
2022-08-22T07:40:28.235Z,21.00
2022-08-22T07:42:48.055Z,21.04
2022-08-22T07:45:15.508Z,21.06
2022-08-22T07:47:26.236Z,21.10
2022-08-22T07:49:50.390Z,21.15
2022-08-22T07:52:04.051Z,21.20
2022-08-22T07:54:11.516Z,21.25
2022-08-22T07:56:19.618Z,21.31
2022-08-22T07:58:25.198Z,21.38
2022-08-22T08:00:29.536Z,21.43
2022-08-22T08:02:31.342Z,21.48
2022-08-22T08:04:39.976Z,21.56
2022-08-22T08:06:41.953Z,21.61
2022-08-22T08:08:44.781Z,21.67
2022-08-22T08:10:50.715Z,21.71
2022-08-22T08:13:02.758Z,21.75
2022-08-22T08:15:09.259Z,21.75
2022-08-22T08:17:33.009Z,21.80
2022-08-22T08:19:38.603Z,21.87
2022-08-22T08:21:46.974Z,21.93
2022-08-22T08:23:49.451Z,21.99
2022-08-22T08:26:12.243Z,22.04
2022-08-22T08:28:33.212Z,22.09
2022-08-22T08:30:43.202Z,22.10
2022-08-22T08:32:57.592Z,22.13
2022-08-22T08:35:25.593Z,22.17
2022-08-22T08:37:36.523Z,22.15
2022-08-22T08:39:43.664Z,22.18
2022-08-22T08:42:00.305Z,22.19
2022-08-22T08:44:07.794Z,22.24
2022-08-22T08:46:25.479Z,22.31
2022-08-22T08:49:06.289Z,22.38
2022-08-22T08:51:45.730Z,22.43
2022-08-22T08:54:12.143Z,22.48
2022-08-22T08:56:20.053Z,22.54
2022-08-22T08:58:21.527Z,22.61
2022-08-22T09:00:42.929Z,22.62
2022-08-22T09:02:53.472Z,22.67
2022-08-22T09:05:37.393Z,22.70
2022-08-22T09:08:14.056Z,22.63
2022-08-22T09:10:27.437Z,22.67
2022-08-22T09:12:56.512Z,22.76
2022-08-22T09:15:37.565Z,22.81
2022-08-22T09:17:55.892Z,22.86
2022-08-22T09:20:24.491Z,22.91
2022-08-22T09:23:10.975Z,22.94
2022-08-22T09:25:23.576Z,22.99
2022-08-22T09:27:29.508Z,23.00
2022-08-22T09:29:54.557Z,23.03
2022-08-22T09:32:24.769Z,23.05
2022-08-22T09:34:37.190Z,23.08
2022-08-22T09:37:08.981Z,23.10
2022-08-22T09:39:15.686Z,23.07
2022-08-22T09:41:44.928Z,23.15
2022-08-22T09:43:52.590Z,23.25
2022-08-22T09:46:09.476Z,23.31
2022-08-22T09:48:14.642Z,23.35
2022-08-22T09:50:33.251Z,23.45
2022-08-22T09:53:10.038Z,23.59
2022-08-22T09:55:35.010Z,23.69
2022-08-22T09:58:05.720Z,23.76
2022-08-22T10:00:13.548Z,23.87
2022-08-22T10:02:45.856Z,23.94
2022-08-22T10:05:40.572Z,23.99
2022-08-22T10:08:05.213Z,24.03
2022-08-22T10:10:21.528Z,24.16
2022-08-22T10:13:01.517Z,24.20
2022-08-22T10:15:28.695Z,24.27
2022-08-22T10:17:41.034Z,24.10
2022-08-22T10:19:58.811Z,23.97
2022-08-22T10:22:37.050Z,23.96
2022-08-22T10:24:51.774Z,24.10
2022-08-22T10:26:58.025Z,24.24
2022-08-22T10:29:10.684Z,24.41
2022-08-22T10:31:59.267Z,24.57
2022-08-22T10:34:04.894Z,24.71
2022-08-22T10:36:49.831Z,24.94
2022-08-22T10:38:54.651Z,25.18
2022-08-22T10:41:09.638Z,25.38
2022-08-22T10:43:19.634Z,25.67
2022-08-22T10:45:37.051Z,25.77
2022-08-22T10:47:50.718Z,25.57
2022-08-22T10:49:56.703Z,25.63
2022-08-22T10:52:15.900Z,25.78
2022-08-22T10:54:40.637Z,25.95
2022-08-22T10:57:03.587Z,26.49
2022-08-22T10:59:32.806Z,27.09
2022-08-22T11:01:45.304Z,27.45
2022-08-22T11:04:01.012Z,27.95
2022-08-22T11:06:12.790Z,28.21
2022-08-22T11:08:31.428Z,28.19
2022-08-22T11:10:54.650Z,27.96
2022-08-22T11:13:14.337Z,27.86
2022-08-22T11:15:42.551Z,27.75
2022-08-22T11:17:59.480Z,27.49
2022-08-22T11:20:30.046Z,27.28
2022-08-22T11:23:16.458Z,26.94
2022-08-22T11:25:36.031Z,26.66
2022-08-22T11:27:47.738Z,26.62
2022-08-22T11:30:05.523Z,26.44
2022-08-22T11:32:37.786Z,26.58
2022-08-22T11:35:17.708Z,26.38
2022-08-22T11:37:43.306Z,26.49
2022-08-22T11:40:04.668Z,26.71
2022-08-22T11:42:29.644Z,26.58
2022-08-22T11:44:53.788Z,26.59
2022-08-22T11:46:57.320Z,26.54
2022-08-22T11:49:16.509Z,26.49
2022-08-22T11:51:41.636Z,26.33
2022-08-22T11:54:04.159Z,26.29
2022-08-22T11:56:37.728Z,26.02
2022-08-22T11:59:17.625Z,26.02
2022-08-22T12:01:36.329Z,25.78
2022-08-22T12:03:53.978Z,25.87
2022-08-22T12:06:09.181Z,25.97
2022-08-22T12:08:30.877Z,26.01
2022-08-22T12:10:37.540Z,26.20
2022-08-22T12:13:01.210Z,26.30
2022-08-22T12:15:24.640Z,26.38
2022-08-22T12:18:01.918Z,26.39
2022-08-22T12:20:34.163Z,26.41
2022-08-22T12:23:01.122Z,26.29
2022-08-22T12:25:10.692Z,26.19
2022-08-22T12:27:29.133Z,25.96
2022-08-22T12:30:01.538Z,26.02
2022-08-22T12:32:27.566Z,26.04
2022-08-22T12:34:38.365Z,25.96
2022-08-22T12:37:13.724Z,25.88
2022-08-22T12:39:24.608Z,26.16
2022-08-22T12:41:46.776Z,26.26
2022-08-22T12:44:00.827Z,26.19
2022-08-22T12:46:13.123Z,26.20
2022-08-22T12:48:54.906Z,26.14
2022-08-22T12:51:21.081Z,26.17
2022-08-22T12:53:56.052Z,26.23
2022-08-22T12:56:03.797Z,26.42
2022-08-22T12:58:41.129Z,26.39
2022-08-22T13:00:48.795Z,26.57
2022-08-22T13:02:55.052Z,26.70
2022-08-22T13:05:09.065Z,26.81
2022-08-22T13:07:24.212Z,26.85
2022-08-22T13:09:28.905Z,26.56
2022-08-22T13:11:39.628Z,26.71
2022-08-22T13:13:56.163Z,26.86
2022-08-22T13:16:05.354Z,26.76
2022-08-22T13:18:30.361Z,26.79
2022-08-22T13:20:43.343Z,26.68
2022-08-22T13:22:45.882Z,26.65
2022-08-22T13:24:56.729Z,26.55
2022-08-22T13:27:06.427Z,26.60
2022-08-22T13:29:26.848Z,26.72
2022-08-22T13:31:32.139Z,26.80
2022-08-22T13:33:47.003Z,26.70
2022-08-22T13:36:16.678Z,26.98
2022-08-22T13:38:28.169Z,27.09
2022-08-22T13:40:32.667Z,27.14
2022-08-22T13:42:43.376Z,27.29
2022-08-22T13:44:54.176Z,27.22
2022-08-22T13:47:14.162Z,27.05
2022-08-22T13:49:36.585Z,26.88
2022-08-22T13:52:03.272Z,27.16
2022-08-22T13:54:40.255Z,27.30
2022-08-22T13:56:51.806Z,27.40
2022-08-22T13:58:59.200Z,27.46
2022-08-22T14:01:25.548Z,27.51
2022-08-22T14:03:48.756Z,27.33
2022-08-22T14:05:55.714Z,27.28
2022-08-22T14:08:14.987Z,27.16
2022-08-22T14:10:26.153Z,27.01
2022-08-22T14:12:50.936Z,27.01
2022-08-22T14:14:59.870Z,27.08
2022-08-22T14:17:02.493Z,27.15
2022-08-22T14:19:12.341Z,26.98
2022-08-22T14:21:27.367Z,26.79
2022-08-22T14:23:29.604Z,26.94
2022-08-22T14:25:38.968Z,26.89
2022-08-22T14:28:09.233Z,26.76
2022-08-22T14:30:13.972Z,26.87
2022-08-22T14:32:23.353Z,26.98
2022-08-22T14:34:31.953Z,27.18
2022-08-22T14:36:44.421Z,27.20
2022-08-22T14:38:56.305Z,27.21
2022-08-22T14:41:05.447Z,27.20
2022-08-22T14:43:28.559Z,27.31
2022-08-22T14:45:40.602Z,27.39
2022-08-22T14:48:29.630Z,27.45
2022-08-22T14:50:38.751Z,27.41
2022-08-22T14:52:45.566Z,27.43
2022-08-22T14:54:47.643Z,27.48
2022-08-22T14:56:53.221Z,27.36
2022-08-22T14:59:05.682Z,27.44
2022-08-22T15:01:11.566Z,27.48
2022-08-22T15:03:24.927Z,27.48
2022-08-22T15:05:26.468Z,27.41
2022-08-22T15:07:32.426Z,27.33
2022-08-22T15:09:40.429Z,27.38
2022-08-22T15:11:48.168Z,27.34
2022-08-22T15:13:53.674Z,27.31
2022-08-22T15:16:01.528Z,27.30
2022-08-22T15:18:28.183Z,27.27
2022-08-22T15:20:45.378Z,26.94
2022-08-22T15:22:52.855Z,26.97
2022-08-22T15:25:00.132Z,26.89
2022-08-22T15:27:02.508Z,26.86
2022-08-22T15:29:18.383Z,26.82
2022-08-22T15:31:22.412Z,26.87
2022-08-22T15:33:32.361Z,26.90
2022-08-22T15:35:38.822Z,26.65
2022-08-22T15:38:02.888Z,26.51
2022-08-22T15:40:27.437Z,26.55
2022-08-22T15:42:37.541Z,26.50
2022-08-22T15:44:44.293Z,26.66
2022-08-22T15:46:52.195Z,26.76
2022-08-22T15:49:10.590Z,26.79
2022-08-22T15:51:30.737Z,26.79
2022-08-22T15:54:16.312Z,26.79
2022-08-22T15:56:39.533Z,26.86
2022-08-22T15:59:26.309Z,26.89
2022-08-22T16:01:41.240Z,26.86
2022-08-22T16:03:55.908Z,26.84
2022-08-22T16:06:07.477Z,26.73
2022-08-22T16:08:14.407Z,26.76
2022-08-22T16:10:22.008Z,26.77
2022-08-22T16:12:31.874Z,26.76
2022-08-22T16:14:33.481Z,26.81
2022-08-22T16:16:50.116Z,26.84
2022-08-22T16:18:51.581Z,26.87
2022-08-22T16:20:54.389Z,26.88
2022-08-22T16:22:58.821Z,26.90
2022-08-22T16:25:03.046Z,26.96
2022-08-22T16:27:24.247Z,26.94
2022-08-22T16:29:41.556Z,26.84
2022-08-22T16:31:46.025Z,26.83
2022-08-22T16:33:47.873Z,26.86
2022-08-22T16:36:14.119Z,26.88
2022-08-22T16:38:26.498Z,26.87
2022-08-22T16:40:28.166Z,26.85
2022-08-22T16:42:52.972Z,26.86
2022-08-22T16:45:05.421Z,26.86
2022-08-22T16:47:14.259Z,26.82
2022-08-22T16:49:32.183Z,26.83
2022-08-22T16:51:34.023Z,26.78
2022-08-22T16:53:35.467Z,26.75
2022-08-22T16:56:06.692Z,26.74
2022-08-22T16:58:22.520Z,26.67
2022-08-22T17:00:36.289Z,26.66
2022-08-22T17:02:52.939Z,26.65
2022-08-22T17:05:22.856Z,26.61
2022-08-22T17:07:30.125Z,26.56
2022-08-22T17:09:53.150Z,26.55
2022-08-22T17:12:04.328Z,26.49
2022-08-22T17:14:14.117Z,26.47
2022-08-22T17:16:21.655Z,26.49
2022-08-22T17:18:57.371Z,26.42
2022-08-22T17:21:15.403Z,26.37
2022-08-22T17:23:48.001Z,26.34
2022-08-22T17:26:10.285Z,26.28
2022-08-22T17:28:23.852Z,26.23
2022-08-22T17:30:36.859Z,26.20
2022-08-22T17:33:10.416Z,26.15
2022-08-22T17:35:30.155Z,26.12
2022-08-22T17:37:48.783Z,26.12
2022-08-22T17:40:48.716Z,26.10
2022-08-22T17:42:50.188Z,26.04
2022-08-22T17:45:07.133Z,26.03
2022-08-22T17:47:16.142Z,26.01
2022-08-22T17:49:27.530Z,25.99
2022-08-22T17:51:59.578Z,25.97
2022-08-22T17:54:12.573Z,25.95
2022-08-22T17:56:24.291Z,25.92
2022-08-22T17:58:31.627Z,25.89
2022-08-22T18:00:53.784Z,25.84
2022-08-22T18:02:59.168Z,25.80
2022-08-22T18:05:20.316Z,25.77
2022-08-22T18:07:29.749Z,25.75
2022-08-22T18:09:39.211Z,25.64
2022-08-22T18:12:04.852Z,25.59
2022-08-22T18:14:49.148Z,25.54
2022-08-22T18:16:53.839Z,25.46
2022-08-22T18:19:16.953Z,25.40
2022-08-22T18:21:25.714Z,25.37
2022-08-22T18:23:36.308Z,25.33
2022-08-22T18:25:56.900Z,25.28
2022-08-22T18:28:06.450Z,25.24
2022-08-22T18:30:11.063Z,25.19
2022-08-22T18:32:20.980Z,25.15
2022-08-22T18:34:29.958Z,25.11
2022-08-22T18:36:38.956Z,25.07
2022-08-22T18:39:06.876Z,24.99
2022-08-22T18:41:34.671Z,24.96
2022-08-22T18:43:41.702Z,24.88
2022-08-22T18:45:45.971Z,24.84
2022-08-22T18:47:57.173Z,24.83
2022-08-22T18:50:02.555Z,24.79
2022-08-22T18:52:10.044Z,24.71
2022-08-22T18:54:11.502Z,24.67
2022-08-22T18:56:24.838Z,24.66
2022-08-22T18:58:33.546Z,24.62
2022-08-22T19:01:00.010Z,24.57
2022-08-22T19:03:04.384Z,24.53
2022-08-22T19:05:19.561Z,24.49
2022-08-22T19:07:53.084Z,24.46
2022-08-22T19:10:27.670Z,24.43
2022-08-22T19:12:35.594Z,24.38
2022-08-22T19:15:09.321Z,24.35
2022-08-22T19:17:13.919Z,24.31
2022-08-22T19:20:12.128Z,24.25
2022-08-22T19:22:19.496Z,24.20
2022-08-22T19:24:26.895Z,24.17
2022-08-22T19:26:36.747Z,24.13
2022-08-22T19:28:38.355Z,24.09
2022-08-22T19:30:53.162Z,24.07
2022-08-22T19:33:03.133Z,24.08
2022-08-22T19:35:35.217Z,24.06
2022-08-22T19:37:55.529Z,24.06
2022-08-22T19:40:00.319Z,24.05
2022-08-22T19:42:01.959Z,24.03
2022-08-22T19:44:03.883Z,23.98
2022-08-22T19:46:11.945Z,23.96
2022-08-22T19:48:14.622Z,23.93
2022-08-22T19:50:16.163Z,23.93
2022-08-22T19:52:24.863Z,23.90
2022-08-22T19:54:28.330Z,23.87
2022-08-22T19:56:41.960Z,23.88
2022-08-22T19:59:25.649Z,23.89
2022-08-22T20:01:40.084Z,23.87
2022-08-22T20:03:55.984Z,23.84
2022-08-22T20:06:43.628Z,23.81
2022-08-22T20:09:10.573Z,23.75
2022-08-22T20:11:27.049Z,23.72
2022-08-22T20:13:32.988Z,23.73
2022-08-22T20:16:00.023Z,23.69
2022-08-22T20:20:24.059Z,23.64
2022-08-22T20:22:39.104Z,23.64
2022-08-22T20:25:01.605Z,23.61
2022-08-22T20:27:14.603Z,23.62
2022-08-22T20:29:17.472Z,23.59
2022-08-22T20:31:23.856Z,23.57
2022-08-22T20:33:31.794Z,23.55
2022-08-22T20:35:33.231Z,23.53
2022-08-22T20:38:05.246Z,23.53
2022-08-22T20:40:57.057Z,23.51
2022-08-22T20:42:50.283Z,23.43
2022-08-22T20:44:54.066Z,23.38
2022-08-22T20:47:07.602Z,23.36
2022-08-22T20:49:21.016Z,23.33
2022-08-22T20:51:25.807Z,23.24
2022-08-22T20:53:27.318Z,23.17
2022-08-22T20:55:31.654Z,23.19
2022-08-22T20:57:35.691Z,23.20
2022-08-22T20:59:41.412Z,23.21
2022-08-22T21:01:44.699Z,23.19
2022-08-22T21:03:50.083Z,23.16
2022-08-22T21:05:51.790Z,23.13
2022-08-22T21:08:07.111Z,23.09
2022-08-22T21:10:40.011Z,23.03
2022-08-22T21:12:41.628Z,22.95
2022-08-22T21:14:46.360Z,22.93
2022-08-22T21:16:48.511Z,22.91
2022-08-22T21:18:52.457Z,22.90
2022-08-22T21:20:54.809Z,22.92
2022-08-22T21:23:02.827Z,22.92
2022-08-22T21:25:05.103Z,22.87
2022-08-22T21:27:07.666Z,22.85
2022-08-22T21:29:12.094Z,22.85
2022-08-22T21:31:19.627Z,22.82
2022-08-22T21:33:24.619Z,22.80
2022-08-22T21:35:30.072Z,22.77
2022-08-22T21:37:39.735Z,22.72
2022-08-22T21:39:48.017Z,22.70
2022-08-22T21:42:21.837Z,22.68
2022-08-22T21:44:35.835Z,22.58
2022-08-22T21:46:37.398Z,22.59
2022-08-22T21:48:58.386Z,22.55
2022-08-22T21:51:21.819Z,22.54
2022-08-22T21:53:27.915Z,22.46
2022-08-22T21:55:38.402Z,22.39
2022-08-22T21:57:39.971Z,22.39
2022-08-22T21:59:51.525Z,22.39
2022-08-22T22:02:31.160Z,22.38
2022-08-22T22:04:32.934Z,22.34
2022-08-22T22:06:36.866Z,22.31
2022-08-22T22:08:38.365Z,22.31
2022-08-22T22:10:42.315Z,22.28
2022-08-22T22:12:45.549Z,22.25
2022-08-22T22:14:51.214Z,22.21
2022-08-22T22:16:52.723Z,22.18
2022-08-22T22:18:55.262Z,22.17
2022-08-22T22:20:57.478Z,22.10
2022-08-22T22:22:59.161Z,22.11
2022-08-22T22:25:00.662Z,22.08
2022-08-22T22:27:03.513Z,22.05
2022-08-22T22:29:05.102Z,22.00
2022-08-22T22:31:07.618Z,21.99
2022-08-22T22:33:10.076Z,21.90
2022-08-22T22:35:11.560Z,21.87
2022-08-22T22:37:15.613Z,21.85
2022-08-22T22:39:17.196Z,21.84
2022-08-22T22:41:21.191Z,21.80
2022-08-22T22:43:22.790Z,21.82
2022-08-22T22:45:24.397Z,21.78
2022-08-22T22:47:27.676Z,21.77
2022-08-22T22:49:31.076Z,21.76
2022-08-22T22:51:32.807Z,21.73
2022-08-22T22:53:40.512Z,21.68
2022-08-22T22:55:44.720Z,21.70
2022-08-22T22:57:46.269Z,21.61
2022-08-22T22:59:48.174Z,21.64
2022-08-22T23:02:10.305Z,21.58
2022-08-22T23:04:11.832Z,21.60
2022-08-22T23:06:19.237Z,21.62
2022-08-22T23:08:20.736Z,21.58
2022-08-22T23:10:22.430Z,21.49
2022-08-22T23:12:25.985Z,21.54
2022-08-22T23:14:27.603Z,21.55
2022-08-22T23:16:33.981Z,21.57
2022-08-22T23:18:38.810Z,21.61
2022-08-22T23:20:40.318Z,21.62
2022-08-22T23:22:44.960Z,21.50
2022-08-22T23:24:48.909Z,21.47
2022-08-22T23:26:50.510Z,21.47
2022-08-22T23:28:52.007Z,21.51
2022-08-22T23:30:53.588Z,21.48
2022-08-22T23:32:55.687Z,21.41
2022-08-22T23:34:57.468Z,21.39
2022-08-22T23:37:01.238Z,21.39
2022-08-22T23:39:04.546Z,21.38
2022-08-22T23:41:09.874Z,21.33
2022-08-22T23:43:11.523Z,21.25
2022-08-22T23:45:13.123Z,21.13
2022-08-22T23:47:15.245Z,21.13
2022-08-22T23:49:17.400Z,21.13
2022-08-22T23:51:23.189Z,21.14
2022-08-22T23:53:24.891Z,21.15
2022-08-22T23:55:26.399Z,21.18
2022-08-22T23:57:29.445Z,21.16
2022-08-22T23:59:33.984Z,21.16
